createdAt,value
2023-06-22T09:58:38.744Z,6.10
2023-06-22T10:01:05.189Z,6.10
2023-06-22T10:03:31.782Z,6.18
2023-06-22T10:05:58.582Z,6.57
2023-06-22T10:08:25.063Z,6.18
2023-06-22T10:10:53.734Z,6.78
2023-06-22T10:13:20.541Z,6.53
2023-06-22T10:15:50.767Z,6.40
2023-06-22T10:18:17.792Z,5.90
2023-06-22T10:20:44.345Z,5.85
2023-06-22T10:23:10.788Z,5.68
2023-06-22T10:25:37.152Z,5.22
2023-06-22T10:28:03.670Z,5.25
2023-06-22T10:30:30.382Z,5.10
2023-06-22T10:32:56.891Z,5.63
2023-06-22T10:35:23.333Z,5.35
2023-06-22T10:37:49.817Z,5.22
2023-06-22T10:40:19.903Z,5.10
2023-06-22T10:42:46.388Z,5.70
2023-06-22T10:45:12.820Z,5.30
2023-06-22T10:47:39.577Z,5.45
2023-06-22T10:50:06.543Z,5.82
2023-06-22T10:52:35.758Z,5.80
2023-06-22T10:55:02.186Z,5.95
2023-06-22T10:57:31.197Z,5.78
2023-06-22T10:59:57.628Z,6.40
2023-06-22T11:02:24.776Z,6.82
2023-06-22T11:04:51.425Z,6.05
2023-06-22T11:07:18.029Z,6.18
2023-06-22T11:09:44.763Z,6.15
2023-06-22T11:12:11.240Z,5.68
2023-06-22T11:14:37.764Z,5.80
2023-06-22T11:17:04.345Z,5.63
2023-06-22T11:19:30.764Z,6.20
2023-06-22T11:21:57.636Z,6.50
2023-06-22T11:24:24.048Z,6.68
2023-06-22T11:26:50.483Z,6.45
2023-06-22T11:29:31.945Z,6.53
2023-06-22T11:32:03.554Z,6.45
2023-06-22T11:34:30.573Z,6.45
2023-06-22T11:36:56.960Z,6.47
2023-06-22T11:39:30.136Z,6.60
2023-06-22T11:42:06.545Z,6.22
2023-06-22T11:44:33.011Z,7.10
2023-06-22T11:47:01.864Z,7.00
2023-06-22T11:49:28.922Z,6.40
2023-06-22T11:51:55.475Z,6.28
2023-06-22T11:54:22.347Z,6.18
2023-06-22T11:56:49.781Z,6.50
2023-06-22T11:59:16.228Z,6.57
2023-06-22T12:01:42.578Z,6.95
2023-06-22T12:04:11.932Z,6.75
2023-06-22T12:06:39.392Z,7.15
2023-06-22T12:09:06.148Z,6.55
2023-06-22T12:11:32.654Z,7.68
2023-06-22T12:14:02.685Z,6.57
2023-06-22T12:16:29.557Z,7.65
2023-06-22T12:18:56.310Z,8.05
2023-06-22T12:21:22.941Z,7.10
2023-06-22T12:23:49.360Z,7.80
2023-06-22T12:26:15.806Z,8.48
2023-06-22T12:28:44.402Z,9.50
2023-06-22T12:31:10.866Z,9.35
2023-06-22T12:33:37.392Z,9.63
2023-06-22T12:36:05.922Z,9.18
2023-06-22T12:38:32.327Z,9.70
2023-06-22T12:40:58.772Z,9.98
2023-06-22T12:43:25.309Z,10.20
2023-06-22T12:45:51.755Z,10.75
2023-06-22T12:48:18.309Z,9.75
2023-06-22T12:50:44.719Z,10.32
2023-06-22T12:53:11.129Z,10.57
2023-06-22T12:55:37.545Z,11.57
2023-06-22T12:58:04.165Z,11.70
2023-06-22T13:00:30.798Z,12.10
2023-06-22T13:02:57.601Z,11.32
2023-06-22T13:05:24.333Z,11.85
2023-06-22T13:07:50.806Z,11.68
2023-06-22T13:10:17.229Z,11.88
2023-06-22T13:12:43.704Z,11.88
2023-06-22T13:15:10.744Z,12.70
2023-06-22T13:17:37.365Z,12.00
2023-06-22T13:20:05.753Z,12.00
2023-06-22T13:22:40.602Z,12.38
2023-06-22T13:25:07.273Z,12.53
2023-06-22T13:27:33.657Z,11.98
2023-06-22T13:30:15.352Z,12.15
2023-06-22T13:32:44.970Z,11.63
2023-06-22T13:35:12.094Z,12.70
2023-06-22T13:37:38.615Z,13.73
2023-06-22T13:40:08.308Z,12.40
2023-06-22T13:42:35.109Z,13.88
2023-06-22T13:45:01.666Z,13.43
2023-06-22T13:47:30.026Z,13.43
2023-06-22T13:49:58.798Z,13.95
2023-06-22T13:52:25.301Z,12.80
2023-06-22T13:54:51.710Z,14.07
2023-06-22T13:57:18.156Z,14.13
2023-06-22T13:59:44.613Z,13.30
2023-06-22T14:02:11.159Z,14.00
2023-06-22T14:04:37.700Z,13.00
2023-06-22T14:07:04.134Z,14.98
2023-06-22T14:09:30.501Z,14.35
2023-06-22T14:11:57.284Z,15.23
2023-06-22T14:14:23.766Z,14.13
2023-06-22T14:16:50.960Z,13.25
2023-06-22T14:19:20.662Z,12.60
2023-06-22T14:21:47.125Z,12.98
2023-06-22T14:24:13.608Z,13.45
2023-06-22T14:26:39.982Z,14.45
2023-06-22T14:29:06.428Z,13.00
2023-06-22T14:31:33.556Z,14.02
2023-06-22T14:34:00.087Z,12.38
2023-06-22T14:36:26.573Z,12.73
2023-06-22T14:38:52.949Z,13.02
2023-06-22T14:41:19.420Z,12.30
2023-06-22T14:43:47.308Z,12.20
2023-06-22T14:46:14.949Z,12.55
2023-06-22T14:48:41.816Z,13.57
2023-06-22T14:51:08.926Z,12.02
2023-06-22T14:53:35.385Z,12.75
2023-06-22T14:56:03.145Z,13.00
2023-06-22T14:58:34.161Z,11.88
2023-06-22T15:01:04.110Z,12.77
2023-06-22T15:03:33.854Z,13.65
2023-06-22T15:06:01.423Z,12.05
2023-06-22T15:08:27.831Z,11.25
2023-06-22T15:10:54.574Z,11.90
2023-06-22T15:13:21.352Z,11.98
2023-06-22T15:15:48.313Z,12.40
2023-06-22T15:18:15.462Z,12.30
2023-06-22T15:20:45.426Z,12.32
2023-06-22T15:23:14.546Z,12.68
2023-06-22T15:25:41.443Z,12.68
2023-06-22T15:28:08.050Z,11.77
2023-06-22T15:30:34.549Z,13.18
2023-06-22T15:33:01.759Z,11.65
2023-06-22T15:35:28.284Z,12.32
2023-06-22T15:37:58.187Z,13.48
2023-06-22T15:40:24.802Z,13.35
2023-06-22T15:42:53.514Z,12.85
2023-06-22T15:45:20.963Z,13.13
2023-06-22T15:47:47.678Z,13.27
2023-06-22T15:50:14.346Z,13.98
2023-06-22T15:52:41.296Z,13.18
2023-06-22T15:55:10.225Z,14.10
2023-06-22T15:57:36.701Z,13.32
2023-06-22T16:00:04.157Z,14.45
2023-06-22T16:02:33.775Z,13.95
2023-06-22T16:05:00.429Z,14.20
2023-06-22T16:07:28.182Z,15.40
2023-06-22T16:09:54.599Z,16.40
2023-06-22T16:12:21.133Z,14.75
2023-06-22T16:14:47.637Z,15.48
2023-06-22T16:17:14.012Z,16.30
2023-06-22T16:19:44.118Z,16.98
2023-06-22T16:22:10.794Z,15.13
2023-06-22T16:24:37.356Z,16.55
2023-06-22T16:27:03.768Z,16.73
2023-06-22T16:29:30.185Z,18.15
2023-06-22T16:31:56.699Z,18.58
2023-06-22T16:34:23.185Z,19.05
2023-06-22T16:36:51.087Z,20.15
2023-06-22T16:39:19.585Z,20.23
2023-06-22T16:41:46.175Z,17.65
2023-06-22T16:44:12.630Z,18.42
2023-06-22T16:46:41.035Z,18.42
2023-06-22T16:49:07.625Z,19.30
2023-06-22T16:51:34.287Z,17.98
2023-06-22T16:54:00.719Z,16.48
2023-06-22T16:56:27.909Z,15.63
2023-06-22T16:59:06.428Z,16.13
2023-06-22T17:01:34.386Z,16.40
2023-06-22T17:04:04.138Z,15.40
2023-06-22T17:06:33.014Z,14.38
2023-06-22T17:09:03.921Z,14.15
2023-06-22T17:11:30.908Z,13.85
2023-06-22T17:14:01.789Z,13.65
2023-06-22T17:16:31.131Z,15.32
2023-06-22T17:21:30.956Z,14.05
2023-06-22T17:24:00.075Z,15.15
2023-06-22T17:26:26.488Z,13.57
2023-06-22T17:29:01.727Z,12.98
2023-06-22T17:31:41.944Z,14.13
2023-06-22T17:34:09.309Z,14.77
2023-06-22T17:36:42.886Z,15.55
2023-06-22T17:39:16.395Z,15.98
2023-06-22T17:41:44.000Z,14.95
2023-06-22T17:44:13.067Z,15.43
2023-06-22T17:46:39.656Z,16.75
2023-06-22T17:49:09.648Z,17.10
2023-06-22T17:51:36.588Z,16.38
2023-06-22T17:54:03.977Z,18.48
2023-06-22T17:56:30.479Z,18.35
2023-06-22T17:58:59.263Z,18.23
2023-06-22T18:01:38.801Z,17.60
2023-06-22T18:04:09.693Z,19.15
2023-06-22T18:06:37.897Z,19.52
2023-06-22T18:09:05.801Z,18.58
2023-06-22T18:11:33.821Z,19.60
2023-06-22T18:14:01.254Z,19.55
2023-06-22T18:16:29.333Z,19.90
2023-06-22T18:18:57.552Z,19.67
2023-06-22T18:21:24.109Z,19.50
2023-06-22T18:23:52.514Z,18.27
2023-06-22T18:26:23.600Z,19.42
2023-06-22T18:28:53.657Z,19.52
2023-06-22T18:31:21.269Z,18.55
2023-06-22T18:33:51.446Z,19.77
2023-06-22T18:36:19.375Z,18.38
2023-06-22T18:38:49.644Z,15.60
2023-06-22T18:41:23.587Z,16.02
2023-06-22T18:43:55.533Z,15.55
2023-06-22T18:46:34.950Z,14.93
2023-06-22T18:49:14.652Z,15.32
2023-06-22T18:51:51.389Z,14.10
2023-06-22T18:54:22.566Z,14.43
2023-06-22T18:56:55.979Z,13.48
2023-06-22T18:59:41.820Z,14.00
2023-06-22T19:04:35.058Z,11.88
2023-06-22T19:07:01.787Z,12.10
2023-06-22T19:09:28.402Z,12.23
2023-06-22T19:12:13.348Z,11.40
2023-06-22T19:14:40.459Z,11.43
2023-06-22T19:17:06.874Z,12.10
2023-06-22T19:19:38.921Z,12.02
2023-06-22T19:22:05.636Z,11.32
2023-06-22T19:24:32.708Z,11.75
2023-06-22T19:26:59.555Z,11.38
2023-06-22T19:29:27.613Z,10.85
2023-06-22T19:31:54.698Z,10.70
2023-06-22T19:34:24.146Z,10.80
2023-06-22T19:36:50.702Z,11.25
2023-06-22T19:39:17.150Z,11.30
2023-06-22T19:44:10.017Z,11.32
2023-06-22T19:46:36.475Z,10.30
2023-06-22T19:49:02.875Z,9.15
2023-06-22T19:53:55.644Z,7.82
2023-06-22T19:58:53.824Z,5.90
2023-06-22T20:01:20.397Z,5.70
2023-06-22T20:03:46.903Z,6.28
2023-06-22T20:06:17.217Z,4.95
2023-06-22T20:08:44.636Z,4.93
2023-06-22T20:11:11.191Z,5.10
2023-06-22T20:13:46.739Z,4.93
2023-06-22T20:16:13.653Z,5.38
2023-06-22T20:18:40.078Z,4.85
2023-06-22T20:23:32.884Z,4.55
2023-06-22T20:28:26.344Z,4.95
2023-06-22T20:31:03.638Z,4.28
2023-06-22T20:33:30.225Z,4.07
2023-06-22T20:35:56.657Z,4.90
2023-06-22T20:40:56.655Z,4.72
2023-06-22T20:43:30.296Z,5.30
2023-06-22T20:46:00.023Z,5.07
2023-06-22T20:48:38.926Z,5.65
2023-06-22T20:51:05.704Z,5.47
2023-06-22T20:53:32.837Z,5.50
2023-06-22T20:55:59.685Z,5.13
2023-06-22T20:58:26.134Z,5.60
2023-06-22T21:00:52.552Z,5.93
2023-06-22T21:05:45.584Z,5.82
2023-06-22T21:08:12.040Z,5.85
2023-06-22T21:10:38.434Z,5.45
2023-06-22T21:15:31.407Z,5.32
2023-06-22T21:17:58.347Z,6.20
2023-06-22T21:20:24.823Z,5.90
2023-06-22T21:25:17.824Z,5.25
2023-06-22T21:27:44.431Z,5.65
2023-06-22T21:30:12.044Z,5.47
2023-06-22T21:32:40.079Z,5.85
2023-06-22T21:35:06.884Z,7.00
2023-06-22T21:37:33.328Z,6.82
2023-06-22T21:42:27.977Z,6.13
2023-06-22T21:44:56.220Z,6.55
2023-06-22T21:47:23.622Z,6.22
2023-06-22T21:49:50.319Z,6.15
2023-06-22T21:52:16.768Z,6.50
2023-06-22T21:57:09.476Z,6.18
2023-06-22T22:02:02.344Z,5.90
2023-06-22T22:04:28.799Z,6.22
2023-06-22T22:09:22.242Z,6.20
2023-06-22T22:11:49.454Z,6.65
2023-06-22T22:14:15.955Z,6.13
2023-06-22T22:16:42.369Z,6.20
2023-06-22T22:21:35.915Z,6.28
2023-06-22T22:24:02.322Z,6.07
2023-06-22T22:28:55.139Z,6.35
2023-06-22T22:33:47.869Z,5.80
2023-06-22T22:38:43.813Z,6.57
2023-06-22T22:41:10.266Z,7.63
2023-06-22T22:46:03.151Z,6.65
2023-06-22T22:48:31.998Z,6.72
2023-06-22T22:50:59.551Z,6.72
2023-06-22T22:53:27.096Z,7.80
2023-06-22T22:55:53.601Z,7.93
2023-06-22T23:00:46.362Z,7.65
2023-06-22T23:05:39.892Z,7.60
2023-06-22T23:08:07.857Z,7.18
2023-06-22T23:10:34.458Z,7.00
2023-06-22T23:13:00.932Z,6.55
2023-06-22T23:17:53.882Z,6.88
2023-06-22T23:22:53.031Z,6.63
2023-06-22T23:25:19.597Z,7.13
2023-06-22T23:27:45.988Z,7.40
2023-06-22T23:35:10.252Z,6.63
2023-06-22T23:37:37.562Z,7.97
2023-06-22T23:40:07.408Z,7.95
2023-06-22T23:42:34.277Z,7.72
2023-06-22T23:45:00.707Z,7.55
2023-06-22T23:49:56.880Z,7.47
2023-06-22T23:52:23.301Z,7.43
2023-06-22T23:57:16.311Z,7.03
2023-06-22T23:59:46.190Z,7.78
